Time;durP1;ratioP1;P1;durP2;ratioP2;P2;SDS_P1;SDS_P2;PMS_P1;PMS_P2;Temp;Humidity;BMP_temperature;BMP_pressure;BME280_temperature;BME280_humidity;BME280_pressure;Samples;Min_cycle;Max_cycle;Signal;HPM_P1;HPM_P2
2022/04/25 00:02:19;;;;;;;;;;;18.80;93.60;;;;;;4995032;28;19936;-55
2022/04/25 00:04:47;;;;;;;;;;;18.70;93.60;;;;;;5008683;28;20320;-54
2022/04/25 00:07:14;;;;;;;;;;;18.70;93.60;;;;;;5009840;28;19925;-55
2022/04/25 00:09:41;;;;;;;;;;;18.70;93.60;;;;;;4996344;28;20316;-56
2022/04/25 00:12:09;;;;;;;;;;;18.70;93.60;;;;;;4999849;28;19937;-57
2022/04/25 00:14:36;;;;;;;;;;;18.70;93.60;;;;;;4999891;28;19929;-57
2022/04/25 00:17:03;;;;;;;;;;;18.70;93.60;;;;;;4991356;28;19944;-57
2022/04/25 00:19:31;;;;;;;;;;;18.70;93.60;;;;;;4999323;28;20124;-52
2022/04/25 00:21:58;;;;;;;;;;;18.70;93.70;;;;;;5002047;28;19952;-54
2022/04/25 00:24:26;;;;;;;;;;;18.70;93.60;;;;;;4991679;28;19929;-55
2022/04/25 00:26:54;;;;;;;;;;;18.70;93.60;;;;;;4993116;28;19926;-58
2022/04/25 00:29:21;;;;;;;;;;;18.70;93.60;;;;;;5005657;28;20440;-54
2022/04/25 00:31:48;;;;;;;;;;;18.70;93.60;;;;;;5001244;28;20408;-54
2022/04/25 00:34:16;;;;;;;;;;;18.70;93.60;;;;;;5001173;28;19930;-54
2022/04/25 00:36:43;;;;;;;;;;;18.70;93.60;;;;;;5008094;28;19929;-56
2022/04/25 00:39:10;;;;;;;;;;;18.70;93.60;;;;;;5005987;28;19942;-56
2022/04/25 00:41:37;;;;;;;;;;;18.70;93.70;;;;;;5020402;28;20261;-55
2022/04/25 00:44:04;;;;;;;;;;;18.70;93.60;;;;;;5026148;28;20320;-56
2022/04/25 00:46:31;;;;;;;;;;;18.70;93.60;;;;;;5014077;28;20357;-57
2022/04/25 00:48:58;;;;;;;;;;;18.60;93.60;;;;;;4980530;28;20305;-59
2022/04/25 00:51:26;;;;;;;;;;;18.70;93.60;;;;;;5001833;28;19937;-57
2022/04/25 00:53:53;;;;;;;;;;;18.70;93.60;;;;;;4991101;28;20309;-57
2022/04/25 00:56:21;;;;;;;;;;;18.70;93.60;;;;;;4994527;28;19926;-55
2022/04/25 00:58:49;;;;;;;;;;;18.60;93.60;;;;;;5024070;28;19936;-56
2022/04/25 01:01:16;;;;;;;;;;;18.70;93.60;;;;;;5006895;28;20297;-56
2022/04/25 01:03:44;;;;;;;;;;;18.70;93.60;;;;;;4991362;28;19937;-57
2022/04/25 01:06:11;;;;;;;;;;;18.70;93.60;;;;;;5005606;28;19925;-59
2022/04/25 01:08:39;;;;;;;;;;;18.70;93.60;;;;;;5008798;28;19926;-60
2022/04/25 01:11:06;;;;;;;;;;;18.60;93.60;;;;;;5004155;28;19929;-59
2022/04/25 01:13:33;;;;;;;;;;;18.60;93.60;;;;;;5016416;28;19944;-59
2022/04/25 01:16:01;;;;;;;;;;;18.60;93.60;;;;;;5014661;28;19929;-57
2022/04/25 01:18:28;;;;;;;;;;;18.60;93.60;;;;;;4992357;28;19945;-58
2022/04/25 01:20:56;;;;;;;;;;;18.60;93.60;;;;;;5003700;28;20404;-59
2022/04/25 01:28:58;;;;;;;;;;;18.60;93.60;;;;;;4997443;28;19929;-58
2022/04/25 01:31:25;;;;;;;;;;;18.60;93.70;;;;;;4997807;28;19930;-58
2022/04/25 01:33:53;;;;;;;;;;;18.60;93.60;;;;;;4990721;28;19933;-58
2022/04/25 01:36:24;;;;;;;;;;;18.60;93.60;;;;;;5000382;28;19930;-56
2022/04/25 01:38:51;;;;;;;;;;;18.60;93.70;;;;;;4990852;28;19930;-56
2022/04/25 01:41:19;;;;;;;;;;;18.60;93.70;;;;;;5002573;28;19930;-56
2022/04/25 01:43:46;;;;;;;;;;;18.60;93.70;;;;;;5000511;28;20427;-56
2022/04/25 01:46:13;;;;;;;;;;;18.60;93.70;;;;;;4998909;28;19930;-58
2022/04/25 01:48:41;;;;;;;;;;;18.60;93.70;;;;;;5002253;28;19930;-56
2022/04/25 01:51:08;;;;;;;;;;;18.60;93.70;;;;;;4995956;28;19929;-55
2022/04/25 01:53:35;;;;;;;;;;;18.60;93.70;;;;;;4990175;28;19936;-55
2022/04/25 01:56:02;;;;;;;;;;;18.60;93.70;;;;;;4997426;28;19934;-56
2022/04/25 01:58:30;;;;;;;;;;;18.60;93.70;;;;;;4991926;28;19936;-56
2022/04/25 02:00:57;;;;;;;;;;;18.60;93.70;;;;;;4994437;28;19929;-56
2022/04/25 02:03:24;;;;;;;;;;;18.60;93.70;;;;;;4994891;28;20677;-59
2022/04/25 02:05:52;;;;;;;;;;;18.60;93.70;;;;;;5023102;28;19930;-57
2022/04/25 02:08:19;;;;;;;;;;;18.60;93.70;;;;;;5008293;28;19937;-57
2022/04/25 02:11:19;;;;;;;;;;;18.60;93.70;;;;;;5002301;28;19930;-59
2022/04/25 02:13:34;;;;;;;;;;;18.50;93.70;;;;;;4989613;28;19937;-59
2022/04/25 02:16:01;;;;;;;;;;;18.60;93.70;;;;;;5012363;28;19928;-56
2022/04/25 02:18:28;;;;;;;;;;;18.50;93.70;;;;;;4999567;28;19937;-57
2022/04/25 02:20:55;;;;;;;;;;;18.50;93.70;;;;;;4999200;28;19930;-58
2022/04/25 02:23:23;;;;;;;;;;;18.50;93.70;;;;;;4989810;28;19934;-54
2022/04/25 02:25:51;;;;;;;;;;;18.50;93.70;;;;;;4999001;28;19964;-57
2022/04/25 02:28:18;;;;;;;;;;;18.50;93.70;;;;;;4991261;28;19940;-57
2022/04/25 02:30:45;;;;;;;;;;;18.50;93.70;;;;;;5007183;28;19936;-54
2022/04/25 02:33:12;;;;;;;;;;;18.50;93.70;;;;;;5000776;28;19953;-56
2022/04/25 02:35:39;;;;;;;;;;;18.50;93.70;;;;;;4993110;28;19956;-57
2022/04/25 02:38:06;;;;;;;;;;;18.50;93.70;;;;;;4989852;28;19933;-58
2022/04/25 02:40:33;;;;;;;;;;;18.50;93.70;;;;;;4992427;28;19930;-56
2022/04/25 02:43:00;;;;;;;;;;;18.50;93.70;;;;;;4989029;28;19937;-56
2022/04/25 02:45:28;;;;;;;;;;;18.50;93.70;;;;;;5003560;28;19948;-57
2022/04/25 02:47:55;;;;;;;;;;;18.50;93.70;;;;;;4999381;28;19930;-58
2022/04/25 02:50:22;;;;;;;;;;;18.50;93.70;;;;;;5007127;28;19929;-58
2022/04/25 02:52:53;;;;;;;;;;;18.50;93.70;;;;;;5000173;28;20015;-53
2022/04/25 02:55:20;;;;;;;;;;;18.50;93.70;;;;;;4989685;28;19933;-56
2022/04/25 02:57:48;;;;;;;;;;;18.50;93.70;;;;;;5011762;28;19933;-53
2022/04/25 03:00:15;;;;;;;;;;;18.50;93.70;;;;;;4992580;28;19930;-52
2022/04/25 03:02:42;;;;;;;;;;;18.50;93.70;;;;;;5007107;28;20000;-53
2022/04/25 03:05:10;;;;;;;;;;;18.50;93.70;;;;;;4994197;28;19929;-59
2022/04/25 03:07:37;;;;;;;;;;;18.50;93.80;;;;;;4999488;28;19930;-59
2022/04/25 03:10:04;;;;;;;;;;;18.50;93.70;;;;;;4992577;28;20400;-57
2022/04/25 03:12:32;;;;;;;;;;;18.50;93.70;;;;;;4998759;28;19930;-59
2022/04/25 03:15:00;;;;;;;;;;;18.40;93.70;;;;;;5005467;28;20552;-58
2022/04/25 03:17:27;;;;;;;;;;;18.40;93.70;;;;;;5003267;28;19930;-57
2022/04/25 03:19:54;;;;;;;;;;;18.40;93.70;;;;;;4990855;28;19944;-58
2022/04/25 03:22:21;;;;;;;;;;;18.40;93.70;;;;;;4988127;28;19941;-58
2022/04/25 03:24:48;;;;;;;;;;;18.40;93.90;;;;;;4995889;28;19982;-59
2022/04/25 03:27:16;;;;;;;;;;;18.40;93.70;;;;;;4995834;28;20036;-55
2022/04/25 03:29:43;;;;;;;;;;;18.40;93.70;;;;;;5000655;28;20392;-55
2022/04/25 03:32:10;;;;;;;;;;;18.40;93.70;;;;;;4996872;28;19984;-54
2022/04/25 03:34:37;;;;;;;;;;;18.40;93.70;;;;;;4988440;28;20404;-56
2022/04/25 03:37:04;;;;;;;;;;;18.40;93.70;;;;;;4995618;28;20404;-56
2022/04/25 03:39:31;;;;;;;;;;;18.40;93.70;;;;;;5004102;28;20320;-58
2022/04/25 03:42:00;;;;;;;;;;;18.40;93.70;;;;;;5006161;28;19929;-58
2022/04/25 03:44:27;;;;;;;;;;;18.40;93.70;;;;;;5000983;28;19930;-55
2022/04/25 03:46:55;;;;;;;;;;;18.40;93.70;;;;;;5006982;28;20683;-57
2022/04/25 03:49:22;;;;;;;;;;;18.40;93.70;;;;;;4997532;28;20398;-59
2022/04/25 03:51:49;;;;;;;;;;;18.40;93.70;;;;;;4998692;28;19933;-57
2022/04/25 03:57:09;;;;;;;;;;;18.40;93.70;;;;;;4995321;28;19936;-58
2022/04/25 03:57:12;;;;;;;;;;;18.40;93.70;;;;;;5007250;28;19937;-57
2022/04/25 03:59:42;;;;;;;;;;;18.40;93.70;;;;;;5009512;28;20248;-56
2022/04/25 04:02:09;;;;;;;;;;;18.40;93.70;;;;;;5003100;28;19930;-57
2022/04/25 04:04:37;;;;;;;;;;;18.40;93.70;;;;;;4991628;28;19937;-57
2022/04/25 04:07:05;;;;;;;;;;;18.30;93.70;;;;;;5014955;28;19941;-57
2022/04/25 04:09:47;;;;;;;;;;;18.40;93.80;;;;;;4999697;28;19933;-56
2022/04/25 04:12:16;;;;;;;;;;;18.40;93.80;;;;;;5024136;28;19960;-58
2022/04/25 04:14:43;;;;;;;;;;;18.40;93.80;;;;;;5001245;28;20437;-54
2022/04/25 04:17:10;;;;;;;;;;;18.40;93.80;;;;;;4989208;28;19929;-57
2022/04/25 04:19:38;;;;;;;;;;;18.40;93.80;;;;;;5002923;28;20420;-58
2022/04/25 04:22:05;;;;;;;;;;;18.30;93.80;;;;;;5006196;28;19933;-58
2022/04/25 04:24:34;;;;;;;;;;;18.30;93.80;;;;;;4989213;28;19925;-58
2022/04/25 04:27:02;;;;;;;;;;;18.30;93.80;;;;;;4996860;28;19937;-59
2022/04/25 04:29:29;;;;;;;;;;;18.30;93.80;;;;;;4988021;28;19930;-57
2022/04/25 04:31:57;;;;;;;;;;;18.30;93.80;;;;;;4987687;28;19930;-55
2022/04/25 04:34:25;;;;;;;;;;;18.30;93.80;;;;;;5008322;28;20389;-59
2022/04/25 04:36:52;;;;;;;;;;;18.30;93.80;;;;;;4989419;28;20503;-58
2022/04/25 04:39:19;;;;;;;;;;;18.30;93.80;;;;;;4988761;28;19930;-60
2022/04/25 04:41:46;;;;;;;;;;;18.30;93.80;;;;;;5005988;28;20511;-58
2022/04/25 04:44:14;;;;;;;;;;;18.30;93.80;;;;;;5002612;28;19929;-56
2022/04/25 04:46:41;;;;;;;;;;;18.40;93.80;;;;;;4999733;28;19949;-56
2022/04/25 04:49:08;;;;;;;;;;;18.30;93.80;;;;;;4987931;28;19941;-55
2022/04/25 04:51:35;;;;;;;;;;;18.30;93.80;;;;;;5005640;28;19947;-57
2022/04/25 04:54:03;;;;;;;;;;;18.30;93.80;;;;;;5006808;28;19929;-56
2022/04/25 04:56:30;;;;;;;;;;;18.30;93.80;;;;;;5002465;28;19930;-57
2022/04/25 04:58:58;;;;;;;;;;;18.30;93.80;;;;;;5020202;28;19945;-61
2022/04/25 05:01:26;;;;;;;;;;;18.30;93.80;;;;;;4997346;28;20406;-59
2022/04/25 05:03:58;;;;;;;;;;;18.30;93.80;;;;;;4992481;28;20151;-57
2022/04/25 05:06:26;;;;;;;;;;;18.40;93.80;;;;;;5004219;28;20165;-55
2022/04/25 05:08:54;;;;;;;;;;;18.40;93.70;;;;;;4999820;28;19933;-56
2022/04/25 05:11:21;;;;;;;;;;;18.50;93.60;;;;;;5005303;28;19925;-54
2022/04/25 05:13:49;;;;;;;;;;;18.50;93.50;;;;;;4998135;28;19930;-56
2022/04/25 05:16:16;;;;;;;;;;;18.50;93.50;;;;;;5001562;28;19948;-57
2022/04/25 05:18:44;;;;;;;;;;;18.50;93.40;;;;;;4997990;28;19952;-55
2022/04/25 05:21:13;;;;;;;;;;;18.60;93.40;;;;;;4995670;28;19937;-56
2022/04/25 05:23:41;;;;;;;;;;;18.60;93.40;;;;;;5003704;28;20388;-59
2022/04/25 05:26:12;;;;;;;;;;;18.60;93.40;;;;;;4997024;28;19929;-57
2022/04/25 05:28:39;;;;;;;;;;;18.60;93.40;;;;;;4992840;28;19948;-56
2022/04/25 05:31:06;;;;;;;;;;;18.60;93.40;;;;;;5000290;28;19933;-53
2022/04/25 05:33:33;;;;;;;;;;;18.60;93.30;;;;;;5010102;28;19926;-57
2022/04/25 05:36:00;;;;;;;;;;;18.60;93.30;;;;;;4997235;28;20404;-54
2022/04/25 05:38:28;;;;;;;;;;;18.60;93.30;;;;;;5003305;28;19930;-58
2022/04/25 05:40:55;;;;;;;;;;;18.60;93.30;;;;;;5001349;28;19938;-55
2022/04/25 05:43:22;;;;;;;;;;;18.60;93.30;;;;;;4993834;28;19930;-56
2022/04/25 05:45:50;;;;;;;;;;;18.60;93.30;;;;;;5008920;28;19929;-58
2022/04/25 05:53:49;;;;;;;;;;;18.60;93.40;;;;;;4991427;28;19945;-55
2022/04/25 05:56:16;;;;;;;;;;;18.60;93.30;;;;;;4998366;28;19984;-56
2022/04/25 05:58:43;;;;;;;;;;;18.60;93.40;;;;;;5008143;28;19945;-57
2022/04/25 06:01:10;;;;;;;;;;;18.50;93.40;;;;;;4996970;28;20309;-56
2022/04/25 06:03:37;;;;;;;;;;;18.60;93.40;;;;;;5003411;28;19930;-59
2022/04/25 06:06:04;;;;;;;;;;;18.60;93.40;;;;;;4997803;28;20416;-59
2022/04/25 06:08:32;;;;;;;;;;;18.50;93.40;;;;;;4989978;28;19945;-59
2022/04/25 06:10:59;;;;;;;;;;;18.50;93.40;;;;;;4992930;28;19929;-56
2022/04/25 06:13:26;;;;;;;;;;;18.50;93.40;;;;;;4990817;28;19933;-59
2022/04/25 06:15:53;;;;;;;;;;;18.50;93.40;;;;;;5010973;28;19926;-58
2022/04/25 06:18:20;;;;;;;;;;;18.50;93.40;;;;;;4997067;28;19936;-56
2022/04/25 06:20:48;;;;;;;;;;;18.50;93.40;;;;;;4995034;28;20313;-56
2022/04/25 06:23:15;;;;;;;;;;;18.50;93.50;;;;;;5021127;28;19933;-57
2022/04/25 06:25:42;;;;;;;;;;;18.50;93.50;;;;;;5018371;28;19914;-58
2022/04/25 06:28:09;;;;;;;;;;;18.50;93.50;;;;;;5008094;28;19926;-59
2022/04/25 06:30:36;;;;;;;;;;;18.50;93.50;;;;;;4992694;28;19930;-59
2022/04/25 06:33:04;;;;;;;;;;;18.50;93.50;;;;;;4994863;28;20177;-59
2022/04/25 06:35:31;;;;;;;;;;;18.50;93.50;;;;;;5004044;28;19933;-57
2022/04/25 06:37:58;;;;;;;;;;;18.50;93.50;;;;;;4997622;28;19930;-59
2022/04/25 06:40:25;;;;;;;;;;;18.50;93.50;;;;;;4997979;28;20385;-58
2022/04/25 06:42:53;;;;;;;;;;;18.50;93.60;;;;;;5000471;28;19930;-60
2022/04/25 06:45:21;;;;;;;;;;;18.50;93.60;;;;;;5008020;28;19928;-57
2022/04/25 06:47:48;;;;;;;;;;;18.50;93.60;;;;;;4990390;28;19957;-56
2022/04/25 06:50:16;;;;;;;;;;;18.50;93.60;;;;;;4993556;28;19934;-59
2022/04/25 06:52:44;;;;;;;;;;;18.50;93.60;;;;;;4990434;28;19936;-55
2022/04/25 06:55:11;;;;;;;;;;;18.50;93.60;;;;;;5008038;28;19932;-55
2022/04/25 06:57:39;;;;;;;;;;;18.50;93.60;;;;;;4999640;28;19948;-59
2022/04/25 07:00:11;;;;;;;;;;;18.50;93.60;;;;;;5004918;28;19936;-54
2022/04/25 07:02:59;;;;;;;;;;;18.50;93.60;;;;;;5026075;28;21466;-57
2022/04/25 07:05:26;;;;;;;;;;;18.50;93.70;;;;;;4996810;28;20454;-56
2022/04/25 07:07:56;;;;;;;;;;;18.50;93.70;;;;;;4991454;28;20330;-53
2022/04/25 07:10:24;;;;;;;;;;;18.50;93.70;;;;;;4994916;28;19933;-58
2022/04/25 07:12:52;;;;;;;;;;;18.50;93.70;;;;;;5003264;28;19929;-55
2022/04/25 07:15:19;;;;;;;;;;;18.50;93.70;;;;;;5003807;28;19929;-54
2022/04/25 07:17:50;;;;;;;;;;;18.50;93.70;;;;;;5007222;28;19941;-59
2022/04/25 07:20:18;;;;;;;;;;;18.50;93.70;;;;;;4993182;28;19925;-56
2022/04/25 07:31:05;;;;;;;;;;;18.50;93.70;;;;;;5008650;28;19929;-55
2022/04/25 07:33:33;;;;;;;;;;;18.50;93.80;;;;;;4990939;28;19936;-59
2022/04/25 07:36:00;;;;;;;;;;;18.50;93.80;;;;;;4997895;28;19932;-55
2022/04/25 07:38:27;;;;;;;;;;;18.50;93.80;;;;;;5006271;28;20269;-57
2022/04/25 07:40:54;;;;;;;;;;;18.50;93.80;;;;;;5006949;28;19948;-57
2022/04/25 07:43:21;;;;;;;;;;;18.50;93.80;;;;;;4999020;28;20385;-58
2022/04/25 07:45:49;;;;;;;;;;;18.50;93.80;;;;;;5011386;28;20373;-57
2022/04/25 07:48:16;;;;;;;;;;;18.50;93.90;;;;;;5000498;28;19934;-58
2022/04/25 07:50:44;;;;;;;;;;;18.50;93.90;;;;;;5005271;28;19929;-58
2022/04/25 07:53:11;;;;;;;;;;;18.50;93.90;;;;;;5002079;28;19926;-59
2022/04/25 07:55:38;;;;;;;;;;;18.50;93.90;;;;;;4996262;28;19937;-57
2022/04/25 07:58:08;;;;;;;;;;;18.50;93.90;;;;;;4990780;28;19932;-57
2022/04/25 08:00:35;;;;;;;;;;;18.50;93.90;;;;;;5003119;28;19932;-60
2022/04/25 08:03:02;;;;;;;;;;;18.50;93.90;;;;;;4989510;28;19929;-57
2022/04/25 08:05:30;;;;;;;;;;;18.50;93.90;;;;;;4996319;28;19926;-59
2022/04/25 08:07:57;;;;;;;;;;;18.50;93.80;;;;;;4991709;28;19933;-57
2022/04/25 08:10:24;;;;;;;;;;;18.60;93.80;;;;;;5002042;28;19933;-59
2022/04/25 08:18:23;;;;;;;;;;;18.60;93.90;;;;;;4991471;28;19925;-58
2022/04/25 08:20:53;;;;;;;;;;;18.60;93.90;;;;;;5011686;28;19929;-58
2022/04/25 08:23:21;;;;;;;;;;;18.60;93.90;;;;;;5010452;28;19930;-60
2022/04/25 08:25:48;;;;;;;;;;;18.60;93.90;;;;;;5019479;28;19955;-58
2022/04/25 08:28:15;;;;;;;;;;;18.60;93.90;;;;;;5002467;28;20386;-59
2022/04/25 08:30:42;;;;;;;;;;;18.60;93.90;;;;;;5002190;28;19937;-57
2022/04/25 08:33:11;;;;;;;;;;;18.60;93.90;;;;;;4997289;28;19929;-57
2022/04/25 08:35:38;;;;;;;;;;;18.70;93.90;;;;;;5003845;28;19926;-58
2022/04/25 08:38:06;;;;;;;;;;;18.70;93.90;;;;;;5007310;28;19940;-56
2022/04/25 08:40:33;;;;;;;;;;;18.70;93.90;;;;;;5004274;28;20317;-57
2022/04/25 08:43:04;;;;;;;;;;;18.70;94.00;;;;;;5010564;28;19926;-57
2022/04/25 08:45:32;;;;;;;;;;;18.70;94.00;;;;;;5009447;28;19929;-60
2022/04/25 08:48:00;;;;;;;;;;;18.70;94.00;;;;;;5033081;28;20398;-59
2022/04/25 08:50:28;;;;;;;;;;;18.70;94.00;;;;;;4993587;28;19940;-59
2022/04/25 08:52:56;;;;;;;;;;;18.70;94.00;;;;;;4992254;28;20282;-59
2022/04/25 08:55:26;;;;;;;;;;;18.70;94.10;;;;;;5003171;28;19926;-59
2022/04/25 08:57:54;;;;;;;;;;;18.70;94.00;;;;;;5002598;28;20683;-57
2022/04/25 09:00:21;;;;;;;;;;;18.70;94.10;;;;;;5006499;28;20439;-55
2022/04/25 09:02:49;;;;;;;;;;;18.70;94.30;;;;;;4999504;28;19932;-59
2022/04/25 09:05:17;;;;;;;;;;;18.70;94.10;;;;;;5001069;28;20400;-59
2022/04/25 09:07:44;;;;;;;;;;;18.70;94.10;;;;;;5009385;28;20435;-61
2022/04/25 09:10:14;;;;;;;;;;;18.70;94.10;;;;;;5007045;28;20270;-58
2022/04/25 09:12:42;;;;;;;;;;;18.70;94.10;;;;;;4997757;28;19926;-57
2022/04/25 09:15:17;;;;;;;;;;;18.70;94.20;;;;;;5013226;28;19929;-58
2022/04/25 09:17:53;;;;;;;;;;;18.80;94.20;;;;;;5018541;28;19930;-57
2022/04/25 09:20:22;;;;;;;;;;;18.70;94.20;;;;;;5004021;28;20415;-52
2022/04/25 09:22:49;;;;;;;;;;;18.70;94.20;;;;;;4993945;28;20499;-56
2022/04/25 09:25:17;;;;;;;;;;;18.70;94.20;;;;;;4994347;28;19935;-56
2022/04/25 09:28:08;;;;;;;;;;;18.80;94.20;;;;;;4995642;28;19936;-57
2022/04/25 09:30:35;;;;;;;;;;;18.70;94.20;;;;;;4998977;28;19925;-58
2022/04/25 09:33:02;;;;;;;;;;;18.80;94.20;;;;;;4992261;28;19984;-58
2022/04/25 09:35:32;;;;;;;;;;;18.80;94.20;;;;;;5007385;28;19929;-56
2022/04/25 09:38:01;;;;;;;;;;;18.80;94.20;;;;;;5010257;28;19929;-54
2022/04/25 09:40:29;;;;;;;;;;;18.80;94.20;;;;;;4996582;28;19929;-56
2022/04/25 09:43:11;;;;;;;;;;;18.80;94.30;;;;;;4998898;28;19933;-56
2022/04/25 09:45:42;;;;;;;;;;;18.80;94.20;;;;;;5013137;28;19926;-60
2022/04/25 09:48:10;;;;;;;;;;;18.80;94.30;;;;;;5013813;28;19940;-58
2022/04/25 09:50:39;;;;;;;;;;;18.80;94.30;;;;;;4994283;28;19929;-57
2022/04/25 09:53:13;;;;;;;;;;;18.80;94.30;;;;;;4998002;28;19929;-58
2022/04/25 09:55:41;;;;;;;;;;;18.80;94.30;;;;;;5010628;28;19930;-58
2022/04/25 09:58:20;;;;;;;;;;;18.80;94.30;;;;;;5005825;28;19948;-54
2022/04/25 10:00:49;;;;;;;;;;;18.80;94.30;;;;;;5003713;28;20317;-57
2022/04/25 10:03:17;;;;;;;;;;;18.80;94.30;;;;;;4997637;28;19934;-57
2022/04/25 10:05:53;;;;;;;;;;;18.80;94.40;;;;;;4994541;28;20321;-58
2022/04/25 10:08:21;;;;;;;;;;;18.80;94.30;;;;;;4992206;28;19926;-59
2022/04/25 10:10:58;;;;;;;;;;;18.80;94.40;;;;;;5006364;28;19937;-58
2022/04/25 10:13:26;;;;;;;;;;;18.80;94.30;;;;;;5011937;28;19930;-60
2022/04/25 10:15:56;;;;;;;;;;;18.80;94.30;;;;;;5011292;28;19945;-55
2022/04/25 10:18:24;;;;;;;;;;;18.80;94.30;;;;;;5010656;28;19926;-58
2022/04/25 10:20:52;;;;;;;;;;;18.80;94.30;;;;;;4996032;28;20428;-55
2022/04/25 10:23:19;;;;;;;;;;;18.80;94.30;;;;;;5031509;28;19985;-59
2022/04/25 10:25:48;;;;;;;;;;;18.80;94.30;;;;;;4993883;28;19934;-56
2022/04/25 10:28:17;;;;;;;;;;;18.80;94.30;;;;;;5003354;28;19960;-54
2022/04/25 10:30:48;;;;;;;;;;;18.80;94.40;;;;;;4993842;28;19929;-56
2022/04/25 10:33:17;;;;;;;;;;;18.80;94.30;;;;;;4998958;28;20519;-57
2022/04/25 10:35:46;;;;;;;;;;;18.80;94.30;;;;;;5004450;28;19929;-58
2022/04/25 10:38:47;;;;;;;;;;;18.80;94.30;;;;;;5003426;28;19937;-56
2022/04/25 10:44:17;;;;;;;;;;;18.80;94.30;;;;;;4997383;28;19952;-60
2022/04/25 10:47:03;;;;;;;;;;;18.70;94.40;;;;;;5014292;28;19932;-57
2022/04/25 10:49:31;;;;;;;;;;;18.70;94.40;;;;;;5002413;28;20398;-60
2022/04/25 10:51:59;;;;;;;;;;;18.70;94.40;;;;;;5000143;28;19925;-59
2022/04/25 10:54:29;;;;;;;;;;;18.70;94.40;;;;;;5008531;28;20001;-57
2022/04/25 10:57:09;;;;;;;;;;;18.70;94.30;;;;;;5002288;28;19929;-59
2022/04/25 10:59:39;;;;;;;;;;;18.70;94.30;;;;;;4992086;28;19926;-58
2022/04/25 11:02:34;;;;;;;;;;;18.70;94.30;;;;;;5002576;28;19925;-57
2022/04/25 11:05:11;;;;;;;;;;;18.70;94.30;;;;;;5010825;28;19930;-60
2022/04/25 11:07:39;;;;;;;;;;;18.70;94.30;;;;;;5008498;28;19933;-55
2022/04/25 11:10:07;;;;;;;;;;;18.70;94.20;;;;;;4992241;28;20290;-59
2022/04/25 11:12:53;;;;;;;;;;;18.80;94.20;;;;;;5008055;28;19936;-59
2022/04/25 11:15:39;;;;;;;;;;;18.80;94.20;;;;;;5004978;28;20317;-58
2022/04/25 11:18:33;;;;;;;;;;;18.80;94.20;;;;;;4992177;28;20389;-57
2022/04/25 11:21:04;;;;;;;;;;;18.80;94.20;;;;;;4995195;28;19941;-56
2022/04/25 11:23:33;;;;;;;;;;;18.80;94.20;;;;;;4990701;28;19930;-58
2022/04/25 11:26:06;;;;;;;;;;;18.80;94.20;;;;;;4993681;28;19933;-58
2022/04/25 11:28:54;;;;;;;;;;;18.80;94.20;;;;;;4990524;28;19930;-58
2022/04/25 11:31:22;;;;;;;;;;;18.80;94.20;;;;;;4989155;28;19936;-58
2022/04/25 11:33:50;;;;;;;;;;;18.80;94.20;;;;;;4990329;28;19930;-57
2022/04/25 11:36:18;;;;;;;;;;;18.80;94.20;;;;;;5000783;28;19941;-58
2022/04/25 11:41:32;;;;;;;;;;;18.80;94.20;;;;;;4994334;28;20416;-58
2022/04/25 11:43:59;;;;;;;;;;;18.80;94.20;;;;;;4995839;28;19926;-56
2022/04/25 11:46:27;;;;;;;;;;;18.80;94.20;;;;;;5005417;28;19942;-58
2022/04/25 11:48:54;;;;;;;;;;;18.80;94.20;;;;;;4996526;28;19925;-57
2022/04/25 11:51:21;;;;;;;;;;;18.80;94.20;;;;;;4997318;28;19930;-59
2022/04/25 11:53:49;;;;;;;;;;;18.80;94.30;;;;;;4993571;28;20286;-57
2022/04/25 11:56:17;;;;;;;;;;;18.80;94.30;;;;;;4997565;28;19930;-53
2022/04/25 11:58:44;;;;;;;;;;;18.80;94.30;;;;;;4992265;28;20281;-56
2022/04/25 12:01:11;;;;;;;;;;;18.80;94.30;;;;;;5005734;28;19936;-57
2022/04/25 12:03:38;;;;;;;;;;;18.80;94.30;;;;;;5004686;28;19930;-59
2022/04/25 12:06:09;;;;;;;;;;;18.80;94.30;;;;;;5018325;28;20412;-61
2022/04/25 12:17:01;;;;;;;;;;;18.80;94.20;;;;;;5009694;28;19930;-59
2022/04/25 12:19:29;;;;;;;;;;;18.90;94.30;;;;;;5009162;28;19929;-58
2022/04/25 12:22:03;;;;;;;;;;;18.90;94.20;;;;;;4996374;28;20421;-58
2022/04/25 12:24:30;;;;;;;;;;;18.80;94.20;;;;;;5008618;28;20348;-57
2022/04/25 12:27:11;;;;;;;;;;;18.80;94.20;;;;;;5001695;28;19937;-55
2022/04/25 12:29:58;;;;;;;;;;;18.80;94.20;;;;;;5008078;28;19929;-58
2022/04/25 12:32:31;;;;;;;;;;;18.80;94.30;;;;;;5009935;28;19936;-56
2022/04/25 12:34:58;;;;;;;;;;;18.80;94.30;;;;;;5014219;28;19933;-57
2022/04/25 12:37:25;;;;;;;;;;;18.90;94.20;;;;;;4997888;28;20414;-54
2022/04/25 12:40:04;;;;;;;;;;;18.90;94.30;;;;;;5012267;28;19936;-55
2022/04/25 12:42:45;;;;;;;;;;;18.90;94.30;;;;;;4999958;28;19930;-58
2022/04/25 12:45:14;;;;;;;;;;;18.80;94.20;;;;;;5016511;28;19931;-56
2022/04/25 12:47:44;;;;;;;;;;;18.90;94.30;;;;;;5016317;28;19948;-56
2022/04/25 12:50:12;;;;;;;;;;;18.80;94.20;;;;;;5013969;28;19930;-58
2022/04/25 12:52:49;;;;;;;;;;;18.80;94.30;;;;;;4999691;28;19926;-59
2022/04/25 12:55:16;;;;;;;;;;;18.80;94.30;;;;;;5027107;28;19940;-58
2022/04/25 12:57:51;;;;;;;;;;;18.80;94.30;;;;;;5028690;28;20032;-58
2022/04/25 13:00:18;;;;;;;;;;;18.90;94.30;;;;;;5005378;28;20340;-57
2022/04/25 13:02:45;;;;;;;;;;;18.90;94.30;;;;;;5022499;28;19925;-58
2022/04/25 13:05:13;;;;;;;;;;;18.90;94.30;;;;;;5005515;28;19937;-54
2022/04/25 13:07:41;;;;;;;;;;;18.80;94.20;;;;;;5004939;28;19930;-58
2022/04/25 13:10:09;;;;;;;;;;;18.90;94.30;;;;;;4996118;28;19937;-56
2022/04/25 13:12:40;;;;;;;;;;;18.90;94.30;;;;;;5041506;28;20128;-58
2022/04/25 13:15:09;;;;;;;;;;;18.90;94.30;;;;;;5001982;28;19933;-57
2022/04/25 13:17:36;;;;;;;;;;;19.00;94.30;;;;;;5001132;28;19926;-56
2022/04/25 13:20:08;;;;;;;;;;;19.00;94.20;;;;;;5001850;28;19929;-52
2022/04/25 13:22:35;;;;;;;;;;;19.00;94.20;;;;;;4996990;28;19936;-58
2022/04/25 13:25:04;;;;;;;;;;;19.10;94.10;;;;;;4998699;28;19940;-59
2022/04/25 13:27:31;;;;;;;;;;;19.10;94.00;;;;;;4994911;28;19936;-54
2022/04/25 13:29:58;;;;;;;;;;;19.20;94.00;;;;;;5004050;28;19940;-56
2022/04/25 13:32:26;;;;;;;;;;;19.20;93.90;;;;;;5007559;28;19948;-56
2022/04/25 13:34:53;;;;;;;;;;;19.20;93.90;;;;;;4990559;28;19926;-59
2022/04/25 13:37:21;;;;;;;;;;;19.20;93.90;;;;;;5006917;28;19925;-56
2022/04/25 13:39:49;;;;;;;;;;;19.20;94.00;;;;;;4991395;28;19949;-57
2022/04/25 13:42:18;;;;;;;;;;;19.20;94.00;;;;;;4991882;28;19934;-54
2022/04/25 13:44:46;;;;;;;;;;;19.20;94.00;;;;;;4998289;28;19929;-56
2022/04/25 13:47:13;;;;;;;;;;;19.10;94.00;;;;;;5005732;28;19929;-55
2022/04/25 13:49:40;;;;;;;;;;;19.20;94.00;;;;;;4991095;28;19937;-56
2022/04/25 13:52:08;;;;;;;;;;;19.20;93.90;;;;;;4999686;28;19956;-55
2022/04/25 13:54:35;;;;;;;;;;;19.20;94.00;;;;;;4991058;28;20381;-55
2022/04/25 13:57:04;;;;;;;;;;;19.20;94.00;;;;;;4994276;28;20431;-57
2022/04/25 13:59:31;;;;;;;;;;;19.20;94.30;;;;;;5012284;28;19936;-56
2022/04/25 14:03:05;;;;;;;;;;;19.10;94.00;;;;;;5007734;28;20431;-56
2022/04/25 14:04:45;;;;;;;;;;;19.10;94.00;;;;;;4995537;28;20387;-59
2022/04/25 14:07:13;;;;;;;;;;;19.10;94.10;;;;;;5005058;28;19937;-56
2022/04/25 14:09:40;;;;;;;;;;;19.10;94.10;;;;;;4995740;28;19929;-53
2022/04/25 14:12:07;;;;;;;;;;;19.10;94.10;;;;;;5005910;28;20385;-55
2022/04/25 14:14:36;;;;;;;;;;;19.10;94.10;;;;;;4991789;28;19930;-59
2022/04/25 14:17:03;;;;;;;;;;;19.00;94.10;;;;;;5007110;28;19925;-56
2022/04/25 14:19:30;;;;;;;;;;;19.00;94.10;;;;;;4999198;28;19930;-58
2022/04/25 14:21:58;;;;;;;;;;;19.00;94.10;;;;;;5005616;28;19937;-57
2022/04/25 14:24:25;;;;;;;;;;;19.00;94.20;;;;;;4991809;28;20358;-54
2022/04/25 14:26:53;;;;;;;;;;;19.00;94.10;;;;;;4993613;28;20313;-60
2022/04/25 14:29:20;;;;;;;;;;;19.00;94.10;;;;;;5004247;28;19926;-59
2022/04/25 14:31:48;;;;;;;;;;;19.00;94.10;;;;;;4990933;28;19930;-59
2022/04/25 14:34:16;;;;;;;;;;;19.00;94.00;;;;;;5002525;28;19930;-58
2022/04/25 14:36:43;;;;;;;;;;;19.00;94.00;;;;;;4989617;28;19930;-58
2022/04/25 14:39:10;;;;;;;;;;;18.90;94.00;;;;;;5001496;28;19940;-57
2022/04/25 14:41:37;;;;;;;;;;;19.00;94.00;;;;;;5007361;28;20017;-60
2022/04/25 14:44:04;;;;;;;;;;;18.90;94.00;;;;;;5002316;28;19934;-58
2022/04/25 14:46:32;;;;;;;;;;;19.00;94.00;;;;;;5000286;28;20390;-57
2022/04/25 14:48:59;;;;;;;;;;;19.00;94.00;;;;;;4992025;28;20397;-57
2022/04/25 14:54:22;;;;;;;;;;;18.90;94.00;;;;;;4992737;28;19935;-57
2022/04/25 14:56:49;;;;;;;;;;;18.90;93.90;;;;;;5007602;28;19933;-57
2022/04/25 14:59:17;;;;;;;;;;;18.90;93.90;;;;;;5015432;28;20288;-56
2022/04/25 15:01:45;;;;;;;;;;;18.90;93.90;;;;;;4996530;28;19926;-56
2022/04/25 15:04:12;;;;;;;;;;;18.90;93.90;;;;;;4988964;28;19940;-60
2022/04/25 15:06:39;;;;;;;;;;;18.90;93.90;;;;;;4997661;28;19930;-54
2022/04/25 15:09:06;;;;;;;;;;;18.90;93.80;;;;;;4988918;28;20355;-58